Time;durP1;ratioP1;P1;durP2;ratioP2;P2;SDS_P1;SDS_P2;PMS_P1;PMS_P2;Temp;Humidity;BMP_temperature;BMP_pressure;BME280_temperature;BME280_humidity;BME280_pressure;Samples;Min_cycle;Max_cycle;Signal;HPM_P1;HPM_P2
2023/04/09 00:01:50;;;;;;;15.38;11.45;;;;;;;;;;6366013;22;20534;-79
2023/04/09 00:04:16;;;;;;;13.25;11.50;;;;;;;;;;6312356;22;20006;-79
2023/04/09 00:06:42;;;;;;;17.90;10.82;;;;;;;;;;6391575;22;20010;-80
2023/04/09 00:09:08;;;;;;;17.05;11.25;;;;;;;;;;6391852;22;20323;-79
2023/04/09 00:11:35;;;;;;;12.60;9.80;;;;;;;;;;6367603;22;19994;-80
2023/04/09 00:14:01;;;;;;;15.93;9.95;;;;;;;;;;6392836;22;20029;-79
2023/04/09 00:16:27;;;;;;;16.70;10.43;;;;;;;;;;6365310;22;20006;-80
2023/04/09 00:18:53;;;;;;;15.52;10.48;;;;;;;;;;6357753;22;20475;-79
2023/04/09 00:21:19;;;;;;;10.55;9.52;;;;;;;;;;6367017;22;20022;-79
2023/04/09 00:23:45;;;;;;;11.90;10.27;;;;;;;;;;6365476;22;20055;-79
2023/04/09 00:26:11;;;;;;;11.38;10.10;;;;;;;;;;6365796;22;20098;-79
2023/04/09 00:28:38;;;;;;;13.85;9.68;;;;;;;;;;6366057;22;20010;-79
2023/04/09 00:31:05;;;;;;;20.17;9.52;;;;;;;;;;6365777;22;20089;-79
2023/04/09 00:33:31;;;;;;;13.68;10.02;;;;;;;;;;6339447;22;20019;-79
2023/04/09 00:35:57;;;;;;;10.90;9.52;;;;;;;;;;6366882;22;20531;-79
2023/04/09 00:38:23;;;;;;;13.20;10.38;;;;;;;;;;6314353;22;20014;-77
2023/04/09 00:40:50;;;;;;;12.85;10.75;;;;;;;;;;6313490;22;20010;-78
2023/04/09 00:43:16;;;;;;;14.88;11.05;;;;;;;;;;6371953;22;20010;-82
2023/04/09 00:45:43;;;;;;;13.13;10.20;;;;;;;;;;6328468;22;20006;-81
2023/04/09 00:48:09;;;;;;;18.98;10.93;;;;;;;;;;6381204;22;20010;-83
2023/04/09 00:50:35;;;;;;;13.02;9.68;;;;;;;;;;6332267;22;20010;-82
2023/04/09 00:53:01;;;;;;;13.38;10.13;;;;;;;;;;6358034;22;20049;-82
2023/04/09 00:55:27;;;;;;;14.27;9.57;;;;;;;;;;6332411;22;20010;-83
2023/04/09 00:57:53;;;;;;;12.00;9.40;;;;;;;;;;6349404;22;20021;-81
2023/04/09 01:00:19;;;;;;;11.23;9.25;;;;;;;;;;6372896;22;20010;-82
2023/04/09 01:02:45;;;;;;;14.10;11.00;;;;;;;;;;6373070;22;20079;-81
2023/04/09 01:05:12;;;;;;;12.45;10.55;;;;;;;;;;6372460;22;20151;-82
2023/04/09 01:07:44;;;;;;;17.35;10.95;;;;;;;;;;6340845;22;20022;-81
2023/04/09 01:10:16;;;;;;;14.18;10.63;;;;;;;;;;6371215;22;20083;-81
2023/04/09 01:13:02;;;;;;;13.18;10.85;;;;;;;;;;6345650;22;20014;-82
2023/04/09 01:15:29;;;;;;;12.07;9.68;;;;;;;;;;6347138;22;20074;-82
2023/04/09 01:18:14;;;;;;;11.10;9.93;;;;;;;;;;6325591;22;20007;-82
2023/04/09 01:20:48;;;;;;;17.60;10.40;;;;;;;;;;6350588;22;20010;-82
2023/04/09 01:23:17;;;;;;;13.77;10.05;;;;;;;;;;6350286;22;20010;-83
2023/04/09 01:25:52;;;;;;;15.73;10.68;;;;;;;;;;6324320;22;20029;-83
2023/04/09 01:28:26;;;;;;;7.28;6.65;;;;;;;;;;6378242;22;20006;-82
2023/04/09 01:30:56;;;;;;;10.55;9.45;;;;;;;;;;6349713;22;20636;-82
2023/04/09 01:33:23;;;;;;;16.15;8.73;;;;;;;;;;6350855;22;20131;-84
2023/04/09 01:35:49;;;;;;;11.05;9.48;;;;;;;;;;6351801;22;20018;-84
2023/04/09 01:38:15;;;;;;;15.45;11.15;;;;;;;;;;6329269;22;20013;-82
2023/04/09 01:40:41;;;;;;;12.10;9.88;;;;;;;;;;6382293;22;20022;-83
2023/04/09 01:43:07;;;;;;;12.38;11.13;;;;;;;;;;6385173;22;20010;-84
2023/04/09 01:45:33;;;;;;;12.02;10.80;;;;;;;;;;6345614;22;20084;-80
2023/04/09 01:48:00;;;;;;;15.50;11.15;;;;;;;;;;6369614;22;20533;-81
2023/04/09 01:50:26;;;;;;;13.93;10.98;;;;;;;;;;6344668;22;20030;-82
2023/04/09 01:52:52;;;;;;;12.77;10.15;;;;;;;;;;6348311;22;20010;-83
2023/04/09 01:55:18;;;;;;;16.25;11.27;;;;;;;;;;6379728;22;20013;-83
2023/04/09 01:57:44;;;;;;;15.90;10.57;;;;;;;;;;6373538;22;20075;-81
2023/04/09 02:00:10;;;;;;;12.27;11.05;;;;;;;;;;6314817;22;20038;-82
2023/04/09 02:02:47;;;;;;;12.88;10.93;;;;;;;;;;6346652;22;20076;-83
2023/04/09 02:05:14;;;;;;;15.18;12.02;;;;;;;;;;6348481;22;20090;-83
2023/04/09 02:07:45;;;;;;;13.07;10.80;;;;;;;;;;6351606;22;20021;-82
2023/04/09 02:10:12;;;;;;;15.55;11.45;;;;;;;;;;6341880;22;20023;-82
2023/04/09 02:12:39;;;;;;;19.70;11.95;;;;;;;;;;6340243;22;20447;-82
2023/04/09 02:15:06;;;;;;;18.52;12.10;;;;;;;;;;6314629;22;20010;-82
2023/04/09 02:17:35;;;;;;;21.15;12.40;;;;;;;;;;6344239;22;20014;-82
2023/04/09 02:20:01;;;;;;;15.10;11.95;;;;;;;;;;6345092;22;20427;-85
2023/04/09 02:22:29;;;;;;;15.85;12.60;;;;;;;;;;6346913;22;20485;-84
2023/04/09 02:24:55;;;;;;;12.70;11.10;;;;;;;;;;6350123;22;20048;-84
2023/04/09 02:27:21;;;;;;;15.93;12.90;;;;;;;;;;6351792;22;20049;-83
2023/04/09 02:29:47;;;;;;;13.80;9.95;;;;;;;;;;6350741;22;20463;-83
2023/04/09 02:32:13;;;;;;;13.85;10.60;;;;;;;;;;6349716;22;20057;-82
2023/04/09 02:34:39;;;;;;;13.57;8.65;;;;;;;;;;6351377;22;20034;-83
2023/04/09 02:37:06;;;;;;;16.23;11.90;;;;;;;;;;6346096;22;20010;-82
2023/04/09 02:39:32;;;;;;;16.05;11.50;;;;;;;;;;6343324;22;20009;-82
2023/04/09 02:42:00;;;;;;;17.70;11.15;;;;;;;;;;6341477;22;20042;-82
2023/04/09 02:44:26;;;;;;;13.05;10.82;;;;;;;;;;6338936;22;20014;-82
2023/04/09 02:46:52;;;;;;;17.15;10.68;;;;;;;;;;6339214;22;20101;-81
2023/04/09 02:49:18;;;;;;;16.83;10.70;;;;;;;;;;6340344;22;20014;-83
2023/04/09 02:51:44;;;;;;;20.10;12.15;;;;;;;;;;6345682;22;20087;-83
2023/04/09 02:54:10;;;;;;;21.15;14.57;;;;;;;;;;6346447;22;20049;-82
2023/04/09 02:56:37;;;;;;;18.25;12.70;;;;;;;;;;6292879;22;20068;-82
2023/04/09 02:59:03;;;;;;;18.48;12.00;;;;;;;;;;6346224;22;20007;-81
2023/04/09 03:01:29;;;;;;;16.40;10.52;;;;;;;;;;6346122;22;20022;-84
2023/04/09 03:03:55;;;;;;;17.50;11.65;;;;;;;;;;6321388;22;20094;-82
2023/04/09 03:06:21;;;;;;;15.90;11.75;;;;;;;;;;6355974;22;20021;-82
2023/04/09 03:08:47;;;;;;;18.27;12.60;;;;;;;;;;6342273;22;20018;-82
2023/04/09 03:11:14;;;;;;;25.95;13.27;;;;;;;;;;6343386;22;20027;-79
2023/04/09 03:13:40;;;;;;;24.75;13.00;;;;;;;;;;6341509;22;20014;-81
2023/04/09 03:16:08;;;;;;;26.52;12.93;;;;;;;;;;6341464;22;20021;-82
2023/04/09 03:18:35;;;;;;;28.10;13.80;;;;;;;;;;6346418;22;20011;-81
2023/04/09 03:21:05;;;;;;;37.63;21.52;;;;;;;;;;6340029;22;20022;-81
2023/04/09 03:23:33;;;;;;;30.92;19.10;;;;;;;;;;6314710;22;20022;-82
2023/04/09 03:26:01;;;;;;;30.23;17.15;;;;;;;;;;6341227;22;20013;-83
2023/04/09 03:28:30;;;;;;;37.38;17.80;;;;;;;;;;6316947;22;20010;-82
2023/04/09 03:30:56;;;;;;;249.20;126.55;;;;;;;;;;6343075;22;20011;-81
2023/04/09 03:33:24;;;;;;;42.88;22.65;;;;;;;;;;6342903;22;20068;-82
2023/04/09 03:35:53;;;;;;;36.75;19.40;;;;;;;;;;6352512;22;20011;-82
2023/04/09 03:38:43;;;;;;;25.95;15.27;;;;;;;;;;6321819;22;20094;-81
2023/04/09 03:41:22;;;;;;;17.80;12.73;;;;;;;;;;6349776;22;20023;-83
2023/04/09 03:43:48;;;;;;;18.60;12.57;;;;;;;;;;6359484;22;20014;-84
2023/04/09 03:46:19;;;;;;;17.33;12.43;;;;;;;;;;6324866;22;20018;-82
2023/04/09 03:48:47;;;;;;;21.80;11.75;;;;;;;;;;6347180;22;20015;-83
2023/04/09 03:51:13;;;;;;;14.23;11.45;;;;;;;;;;6353599;22;20011;-82
2023/04/09 03:53:45;;;;;;;15.40;10.82;;;;;;;;;;6343775;22;20007;-81
2023/04/09 03:56:10;;;;;;;19.42;11.05;;;;;;;;;;6340736;22;20420;-82
2023/04/09 03:58:37;;;;;;;16.90;10.95;;;;;;;;;;6342796;22;20040;-83
2023/04/09 04:01:04;;;;;;;14.48;11.10;;;;;;;;;;6319009;22;20015;-83
2023/04/09 04:03:38;;;;;;;19.02;11.02;;;;;;;;;;6345830;22;20333;-82
2023/04/09 04:06:24;;;;;;;18.75;11.35;;;;;;;;;;6345182;22;20037;-86
2023/04/09 04:09:18;;;;;;;16.48;12.20;;;;;;;;;;6351820;22;20027;-81
2023/04/09 04:11:50;;;;;;;23.00;13.85;;;;;;;;;;6343131;22;20049;-82
2023/04/09 04:14:18;;;;;;;20.90;13.32;;;;;;;;;;6341255;22;20454;-83
2023/04/09 04:16:49;;;;;;;18.05;12.40;;;;;;;;;;6342943;22;20051;-83
2023/04/09 04:19:18;;;;;;;17.50;13.05;;;;;;;;;;6342418;22;20011;-82
2023/04/09 04:21:48;;;;;;;15.18;12.98;;;;;;;;;;6342150;22;20407;-82
2023/04/09 04:24:14;;;;;;;20.55;12.30;;;;;;;;;;6313965;22;20014;-81
2023/04/09 04:26:41;;;;;;;16.40;12.95;;;;;;;;;;6340953;22;20049;-82
2023/04/09 04:29:08;;;;;;;15.55;12.95;;;;;;;;;;6338369;22;20090;-82
2023/04/09 04:31:55;;;;;;;15.85;12.00;;;;;;;;;;6345193;22;20084;-82
2023/04/09 04:34:24;;;;;;;20.90;13.05;;;;;;;;;;6358285;22;19990;-88
2023/04/09 04:36:58;;;;;;;18.20;13.60;;;;;;;;;;6344032;22;20014;-81
2023/04/09 04:39:29;;;;;;;23.27;13.75;;;;;;;;;;6352535;22;20033;-86
2023/04/09 04:42:00;;;;;;;20.00;13.43;;;;;;;;;;6359838;22;20002;-86
2023/04/09 04:44:27;;;;;;;14.98;13.13;;;;;;;;;;6355705;22;20011;-83
2023/04/09 04:47:06;;;;;;;15.77;13.25;;;;;;;;;;6346103;22;20011;-83
2023/04/09 04:49:32;;;;;;;20.27;13.57;;;;;;;;;;6349348;22;20007;-84
2023/04/09 04:52:00;;;;;;;18.83;13.18;;;;;;;;;;6360050;22;20014;-85
2023/04/09 04:54:27;;;;;;;13.30;11.05;;;;;;;;;;6356159;22;20022;-84
2023/04/09 04:56:56;;;;;;;21.23;12.55;;;;;;;;;;6352545;22;20010;-82
2023/04/09 04:59:38;;;;;;;14.77;13.15;;;;;;;;;;6354313;22;20363;-83
2023/04/09 05:02:06;;;;;;;19.90;13.23;;;;;;;;;;6355191;22;20056;-85
2023/04/09 05:04:42;;;;;;;18.08;13.10;;;;;;;;;;6329536;22;20015;-84
2023/04/09 05:07:14;;;;;;;19.65;12.50;;;;;;;;;;6355489;22;20034;-84
2023/04/09 05:09:48;;;;;;;16.30;12.02;;;;;;;;;;6363840;22;20022;-85
2023/04/09 05:12:16;;;;;;;15.80;13.07;;;;;;;;;;6377960;22;20020;-85
2023/04/09 05:14:46;;;;;;;27.67;13.77;;;;;;;;;;6322522;22;20021;-84
2023/04/09 05:17:15;;;;;;;17.85;14.00;;;;;;;;;;6347948;22;20014;-84
2023/04/09 05:19:44;;;;;;;21.10;12.90;;;;;;;;;;6349838;22;20010;-83
2023/04/09 05:22:14;;;;;;;18.05;13.65;;;;;;;;;;6348706;22;20022;-83
2023/04/09 05:24:40;;;;;;;18.23;14.20;;;;;;;;;;6376685;22;20010;-83
2023/04/09 05:27:06;;;;;;;23.90;13.48;;;;;;;;;;6375504;22;20010;-84
2023/04/09 05:29:32;;;;;;;22.67;14.27;;;;;;;;;;6322040;22;20006;-83
2023/04/09 05:31:59;;;;;;;17.92;13.57;;;;;;;;;;6349222;22;20088;-83
2023/04/09 05:34:30;;;;;;;21.75;14.23;;;;;;;;;;6323800;22;20006;-82
2023/04/09 05:36:57;;;;;;;27.70;14.23;;;;;;;;;;6349505;22;20018;-83
2023/04/09 05:39:24;;;;;;;27.92;14.20;;;;;;;;;;6326652;22;20049;-81
2023/04/09 05:41:52;;;;;;;23.60;14.32;;;;;;;;;;6352608;22;20041;-83
2023/04/09 05:44:30;;;;;;;23.20;13.88;;;;;;;;;;6357215;22;20006;-84
2023/04/09 05:47:03;;;;;;;16.23;12.68;;;;;;;;;;6329203;22;20056;-83
2023/04/09 05:49:36;;;;;;;16.42;12.35;;;;;;;;;;6352551;22;20018;-83
2023/04/09 05:52:08;;;;;;;21.88;12.93;;;;;;;;;;6326908;22;20013;-84
2023/04/09 05:54:35;;;;;;;21.63;14.02;;;;;;;;;;6303054;22;20039;-82
2023/04/09 05:57:06;;;;;;;22.70;14.75;;;;;;;;;;6348220;22;20351;-82
2023/04/09 05:59:38;;;;;;;18.13;13.25;;;;;;;;;;6375385;22;20481;-83
2023/04/09 06:02:04;;;;;;;17.38;12.57;;;;;;;;;;6321138;22;20353;-83
2023/04/09 06:04:32;;;;;;;21.00;14.23;;;;;;;;;;6301610;22;20010;-83
2023/04/09 06:07:00;;;;;;;14.73;13.25;;;;;;;;;;6355923;22;20010;-83
2023/04/09 06:09:29;;;;;;;25.23;13.35;;;;;;;;;;6386043;22;20027;-83
2023/04/09 06:11:56;;;;;;;20.83;14.45;;;;;;;;;;6382898;22;20014;-82
2023/04/09 06:14:23;;;;;;;24.83;14.32;;;;;;;;;;6381687;22;20056;-85
2023/04/09 06:16:50;;;;;;;22.23;13.30;;;;;;;;;;6353550;22;20018;-84
2023/04/09 06:19:16;;;;;;;17.55;14.18;;;;;;;;;;6349056;22;20011;-83
2023/04/09 06:21:42;;;;;;;23.05;14.48;;;;;;;;;;6348626;22;20022;-83
2023/04/09 06:24:08;;;;;;;23.50;14.45;;;;;;;;;;6377738;22;20022;-83
2023/04/09 06:26:35;;;;;;;21.90;13.95;;;;;;;;;;6350920;22;20168;-81
2023/04/09 06:29:02;;;;;;;14.02;10.75;;;;;;;;;;6375795;22;20006;-83
2023/04/09 06:31:28;;;;;;;24.48;13.48;;;;;;;;;;6324006;22;20014;-83
2023/04/09 06:33:54;;;;;;;15.25;13.55;;;;;;;;;;6349225;22;20010;-83
2023/04/09 06:36:20;;;;;;;20.85;13.10;;;;;;;;;;6315865;22;20018;-82
2023/04/09 06:38:49;;;;;;;32.67;13.63;;;;;;;;;;6318029;22;20497;-82
2023/04/09 06:41:15;;;;;;;16.45;13.13;;;;;;;;;;6316222;22;20045;-82
2023/04/09 06:43:41;;;;;;;14.73;12.00;;;;;;;;;;6342851;22;20137;-83
2023/04/09 06:46:08;;;;;;;22.33;14.90;;;;;;;;;;6339893;22;20039;-81
2023/04/09 06:48:34;;;;;;;20.50;12.65;;;;;;;;;;6369172;22;20035;-81
2023/04/09 06:51:00;;;;;;;22.33;12.75;;;;;;;;;;6332796;22;20010;-80
2023/04/09 06:53:26;;;;;;;17.90;12.13;;;;;;;;;;6337149;22;20020;-81
2023/04/09 06:55:52;;;;;;;21.00;12.38;;;;;;;;;;6391125;22;19997;-81
2023/04/09 06:58:19;;;;;;;26.38;12.73;;;;;;;;;;6366112;22;20026;-81
2023/04/09 07:00:45;;;;;;;12.88;11.57;;;;;;;;;;6352225;22;20073;-82
2023/04/09 07:03:14;;;;;;;15.73;12.20;;;;;;;;;;6370086;22;20014;-80
2023/04/09 07:05:40;;;;;;;20.40;11.48;;;;;;;;;;6345642;22;20013;-80
2023/04/09 07:08:06;;;;;;;16.98;12.38;;;;;;;;;;6347371;22;20010;-82
2023/04/09 07:10:33;;;;;;;17.40;12.13;;;;;;;;;;6349958;22;20069;-83
2023/04/09 07:12:59;;;;;;;22.88;11.65;;;;;;;;;;6321911;22;20013;-82
2023/04/09 07:15:25;;;;;;;11.05;9.95;;;;;;;;;;6343676;22;20018;-82
2023/04/09 07:17:51;;;;;;;18.67;10.98;;;;;;;;;;6343854;22;20013;-82
2023/04/09 07:20:17;;;;;;;14.82;11.10;;;;;;;;;;6368752;22;20056;-82
2023/04/09 07:22:43;;;;;;;20.10;11.55;;;;;;;;;;6368537;22;20104;-83
2023/04/09 07:25:09;;;;;;;13.32;10.05;;;;;;;;;;6368235;22;20714;-81
2023/04/09 07:27:36;;;;;;;14.25;10.77;;;;;;;;;;6366575;22;20017;-80
2023/04/09 07:30:02;;;;;;;15.52;10.90;;;;;;;;;;6366800;22;20018;-82
2023/04/09 07:32:29;;;;;;;21.05;11.25;;;;;;;;;;6364296;22;20014;-80
2023/04/09 07:34:56;;;;;;;13.02;10.32;;;;;;;;;;6336859;22;20016;-78
2023/04/09 07:37:22;;;;;;;15.52;12.70;;;;;;;;;;6337706;22;20010;-82
2023/04/09 07:39:48;;;;;;;18.38;11.93;;;;;;;;;;6366382;22;20014;-81
2023/04/09 07:42:14;;;;;;;12.18;10.55;;;;;;;;;;6311455;22;20022;-80
2023/04/09 07:44:40;;;;;;;11.10;10.13;;;;;;;;;;6364520;22;20049;-80
2023/04/09 07:47:06;;;;;;;11.07;9.55;;;;;;;;;;6364620;22;20014;-79
2023/04/09 07:49:32;;;;;;;12.02;9.40;;;;;;;;;;6363682;22;20038;-79
2023/04/09 07:51:58;;;;;;;13.18;9.13;;;;;;;;;;6364086;22;20014;-79
2023/04/09 07:54:25;;;;;;;9.63;7.65;;;;;;;;;;6337301;22;20013;-80
2023/04/09 07:56:51;;;;;;;11.23;7.18;;;;;;;;;;6337395;22;20085;-80
2023/04/09 07:59:17;;;;;;;13.30;7.95;;;;;;;;;;6364282;22;20045;-80
2023/04/09 08:01:43;;;;;;;8.57;7.78;;;;;;;;;;6369420;22;20602;-80
2023/04/09 08:04:11;;;;;;;11.05;7.57;;;;;;;;;;6355706;22;20039;-81
2023/04/09 08:06:37;;;;;;;14.43;8.10;;;;;;;;;;6336665;22;20014;-80
2023/04/09 08:09:03;;;;;;;16.02;9.27;;;;;;;;;;6364759;22;20056;-80
2023/04/09 08:11:29;;;;;;;10.93;7.97;;;;;;;;;;6389770;22;20018;-78
2023/04/09 08:13:56;;;;;;;8.95;7.82;;;;;;;;;;6381264;22;20010;-77
2023/04/09 08:16:23;;;;;;;11.10;7.60;;;;;;;;;;6330848;22;20006;-78
2023/04/09 08:18:49;;;;;;;11.27;7.07;;;;;;;;;;6340142;22;20461;-80
2023/04/09 08:21:17;;;;;;;8.23;7.43;;;;;;;;;;6366388;22;20037;-79
2023/04/09 08:23:43;;;;;;;9.45;8.55;;;;;;;;;;6368579;22;20121;-80
2023/04/09 08:26:09;;;;;;;9.60;8.80;;;;;;;;;;6366126;22;20041;-78
2023/04/09 08:28:36;;;;;;;10.20;8.20;;;;;;;;;;6312899;22;20010;-79
2023/04/09 08:31:02;;;;;;;7.10;6.35;;;;;;;;;;6337828;22;20006;-80
2023/04/09 08:33:28;;;;;;;13.48;7.82;;;;;;;;;;6338674;22;20067;-79
2023/04/09 08:35:54;;;;;;;11.88;7.57;;;;;;;;;;6366786;22;20016;-79
2023/04/09 08:38:20;;;;;;;9.48;7.50;;;;;;;;;;6366115;22;20021;-79
2023/04/09 08:40:46;;;;;;;9.07;6.47;;;;;;;;;;6365677;22;20383;-78
2023/04/09 08:43:15;;;;;;;8.95;8.13;;;;;;;;;;6365982;22;20022;-80
2023/04/09 08:45:41;;;;;;;6.63;5.70;;;;;;;;;;6340506;22;20013;-81
2023/04/09 08:48:13;;;;;;;5.63;5.05;;;;;;;;;;6343914;22;20067;-82
2023/04/09 08:50:39;;;;;;;5.45;4.93;;;;;;;;;;6374024;22;20034;-82
2023/04/09 08:53:05;;;;;;;6.07;5.57;;;;;;;;;;6379074;22;20022;-80
2023/04/09 08:55:33;;;;;;;7.82;6.40;;;;;;;;;;6346823;22;20011;-81
2023/04/09 08:57:59;;;;;;;7.32;6.63;;;;;;;;;;6369360;22;20010;-82
2023/04/09 09:00:26;;;;;;;9.02;7.28;;;;;;;;;;6366701;22;20075;-79
2023/04/09 09:03:04;;;;;;;9.77;8.27;;;;;;;;;;6367579;22;20022;-81
2023/04/09 09:05:39;;;;;;;7.00;6.03;;;;;;;;;;6366141;22;20012;-80
2023/04/09 09:08:09;;;;;;;10.63;7.60;;;;;;;;;;6338581;22;20018;-80
2023/04/09 09:10:44;;;;;;;7.50;6.13;;;;;;;;;;6306342;22;20075;-79
2023/04/09 09:13:23;;;;;;;6.55;5.88;;;;;;;;;;6332979;22;20007;-79
2023/04/09 09:15:52;;;;;;;6.95;6.05;;;;;;;;;;6336158;22;20019;-80
2023/04/09 09:18:19;;;;;;;10.60;7.90;;;;;;;;;;6334966;22;20097;-80
2023/04/09 09:20:45;;;;;;;10.15;7.05;;;;;;;;;;6339389;22;20573;-78
2023/04/09 09:23:11;;;;;;;4.28;3.97;;;;;;;;;;6344288;22;20018;-81
2023/04/09 09:25:37;;;;;;;7.40;6.70;;;;;;;;;;6293431;22;20221;-79
2023/04/09 09:28:10;;;;;;;9.95;7.10;;;;;;;;;;6345942;22;20022;-80
2023/04/09 09:30:37;;;;;;;13.48;7.25;;;;;;;;;;6345987;22;20014;-78
2023/04/09 09:33:07;;;;;;;8.18;5.05;;;;;;;;;;6317647;22;20094;-77
2023/04/09 09:36:02;;;;;;;9.57;6.18;;;;;;;;;;6338768;22;20007;-79
2023/04/09 09:38:28;;;;;;;6.47;5.97;;;;;;;;;;6337652;22;20485;-81
2023/04/09 09:40:55;;;;;;;11.88;6.07;;;;;;;;;;6340848;22;20097;-79
2023/04/09 09:43:21;;;;;;;12.45;6.22;;;;;;;;;;6335112;22;20021;-79
2023/04/09 09:45:47;;;;;;;6.60;6.05;;;;;;;;;;6332398;22;20011;-80
2023/04/09 09:48:13;;;;;;;7.60;6.90;;;;;;;;;;6335395;22;20038;-78
2023/04/09 09:50:42;;;;;;;6.82;6.32;;;;;;;;;;6334282;22;20092;-80
2023/04/09 09:53:08;;;;;;;8.48;6.55;;;;;;;;;;6336096;22;20022;-78
2023/04/09 09:55:38;;;;;;;8.02;6.65;;;;;;;;;;6333899;22;20010;-79
2023/04/09 09:58:15;;;;;;;8.32;6.88;;;;;;;;;;6335321;22;20010;-78
2023/04/09 10:00:41;;;;;;;7.28;6.30;;;;;;;;;;6282361;22;20054;-78
2023/04/09 10:03:13;;;;;;;8.48;6.40;;;;;;;;;;6307719;22;20022;-77
2023/04/09 10:05:39;;;;;;;9.63;6.70;;;;;;;;;;6332733;22;20104;-81
2023/04/09 10:08:06;;;;;;;6.55;5.60;;;;;;;;;;6309697;22;20011;-77
2023/04/09 10:10:41;;;;;;;10.00;6.38;;;;;;;;;;6356353;22;20091;-78
2023/04/09 10:13:09;;;;;;;10.35;6.60;;;;;;;;;;6366665;22;20396;-77
2023/04/09 10:15:35;;;;;;;12.55;5.63;;;;;;;;;;6365664;22;20059;-77
2023/04/09 10:18:01;;;;;;;6.28;5.78;;;;;;;;;;6366437;22;20076;-77
2023/04/09 10:20:29;;;;;;;7.25;6.65;;;;;;;;;;6313021;22;20404;-77
2023/04/09 10:22:56;;;;;;;5.32;4.80;;;;;;;;;;6338780;22;20480;-76
2023/04/09 10:25:22;;;;;;;6.35;5.75;;;;;;;;;;6337042;22;20041;-76
2023/04/09 10:28:15;;;;;;;9.35;6.32;;;;;;;;;;6365870;22;20358;-77
2023/04/09 10:30:42;;;;;;;8.00;6.30;;;;;;;;;;6336769;22;20392;-75
2023/04/09 10:33:12;;;;;;;9.93;5.93;;;;;;;;;;6342432;22;20015;-77
2023/04/09 10:35:38;;;;;;;7.10;6.40;;;;;;;;;;6370177;22;20059;-77
2023/04/09 10:38:08;;;;;;;9.85;5.95;;;;;;;;;;6343161;22;20006;-77
2023/04/09 10:40:46;;;;;;;10.23;6.15;;;;;;;;;;6341921;22;20158;-77
2023/04/09 10:43:12;;;;;;;7.22;6.05;;;;;;;;;;6312198;22;20025;-77
2023/04/09 10:45:41;;;;;;;6.65;5.93;;;;;;;;;;6311334;22;20033;-77
2023/04/09 10:48:11;;;;;;;7.35;6.55;;;;;;;;;;6337726;22;20018;-77
2023/04/09 10:50:37;;;;;;;11.80;6.45;;;;;;;;;;6364234;22;20089;-76
2023/04/09 10:53:03;;;;;;;8.18;7.47;;;;;;;;;;6310505;22;20010;-78
2023/04/09 10:55:36;;;;;;;7.13;5.72;;;;;;;;;;6364653;22;20010;-76
2023/04/09 10:58:03;;;;;;;6.32;5.55;;;;;;;;;;6364705;22;20014;-77
2023/04/09 11:00:29;;;;;;;7.53;6.85;;;;;;;;;;6363581;22;20587;-77
2023/04/09 11:03:07;;;;;;;7.15;6.45;;;;;;;;;;6364826;22;20018;-76
2023/04/09 11:05:34;;;;;;;6.85;6.25;;;;;;;;;;6337144;22;20097;-77
2023/04/09 11:08:04;;;;;;;8.13;7.03;;;;;;;;;;6364571;22;20418;-76
2023/04/09 11:10:30;;;;;;;6.78;5.50;;;;;;;;;;6306662;22;20019;-77
2023/04/09 11:12:57;;;;;;;6.93;6.32;;;;;;;;;;6334609;22;20332;-76
2023/04/09 11:15:23;;;;;;;10.82;6.38;;;;;;;;;;6307075;22;20003;-78
2023/04/09 11:17:49;;;;;;;15.57;6.47;;;;;;;;;;6334098;22;20344;-78
2023/04/09 11:20:24;;;;;;;7.93;5.78;;;;;;;;;;6335155;22;20033;-78
2023/04/09 11:22:51;;;;;;;8.23;6.35;;;;;;;;;;6334034;22;20053;-77
2023/04/09 11:25:21;;;;;;;9.50;6.50;;;;;;;;;;6334726;22;20531;-77
2023/04/09 11:27:47;;;;;;;8.18;5.88;;;;;;;;;;6333029;22;20017;-78
2023/04/09 11:30:13;;;;;;;8.27;6.28;;;;;;;;;;6334423;22;20084;-78
2023/04/09 11:32:39;;;;;;;5.97;5.38;;;;;;;;;;6333178;22;20006;-77
2023/04/09 11:35:15;;;;;;;6.28;5.78;;;;;;;;;;6335166;22;20016;-77
2023/04/09 11:37:41;;;;;;;12.00;7.22;;;;;;;;;;6334475;22;20443;-76
2023/04/09 11:40:28;;;;;;;6.60;6.00;;;;;;;;;;6333377;22;20099;-76
2023/04/09 11:42:54;;;;;;;8.15;6.78;;;;;;;;;;6332982;22;20022;-76
2023/04/09 11:45:21;;;;;;;6.47;5.85;;;;;;;;;;6332928;22;20011;-75
2023/04/09 11:47:47;;;;;;;6.45;5.85;;;;;;;;;;6333760;22;20018;-76
2023/04/09 11:50:14;;;;;;;7.13;6.40;;;;;;;;;;6331333;22;20013;-76
2023/04/09 11:52:40;;;;;;;7.60;6.85;;;;;;;;;;6331924;22;20407;-75
2023/04/09 11:55:07;;;;;;;7.70;6.13;;;;;;;;;;6329767;22;20014;-79
2023/04/09 11:57:41;;;;;;;8.32;7.53;;;;;;;;;;6332233;22;20014;-78
2023/04/09 12:00:08;;;;;;;8.48;5.28;;;;;;;;;;6331838;22;20017;-78
2023/04/09 12:02:36;;;;;;;7.45;5.43;;;;;;;;;;6304410;22;20015;-78
2023/04/09 12:05:03;;;;;;;8.65;7.10;;;;;;;;;;6329721;22;20169;-78
2023/04/09 12:07:32;;;;;;;8.02;7.20;;;;;;;;;;6332497;22;20010;-78
2023/04/09 12:23:10;;;;;;;8.18;7.20;;;;;;;;;;6166187;23;19925;-78
2023/04/09 12:25:37;;;;;;;8.23;7.15;;;;;;;;;;6115915;23;20020;-77
2023/04/09 12:28:03;;;;;;;8.45;7.65;;;;;;;;;;6105712;23;20022;-77
2023/04/09 12:30:29;;;;;;;6.90;6.18;;;;;;;;;;6104517;23;20132;-76
2023/04/09 12:32:55;;;;;;;7.68;5.78;;;;;;;;;;6105379;23;20014;-77
2023/04/09 12:35:21;;;;;;;8.60;6.85;;;;;;;;;;6100542;23;20021;-77
2023/04/09 12:37:47;;;;;;;7.47;6.78;;;;;;;;;;6027378;23;20029;-77
2023/04/09 12:40:16;;;;;;;7.28;6.53;;;;;;;;;;6101190;23;20014;-77
2023/04/09 12:42:42;;;;;;;7.65;6.00;;;;;;;;;;6100585;23;20014;-77
2023/04/09 12:45:10;;;;;;;7.22;6.72;;;;;;;;;;6100922;23;20153;-77
2023/04/09 12:47:35;;;;;;;5.65;5.15;;;;;;;;;;6075015;23;20463;-77
2023/04/09 12:50:06;;;;;;;8.98;6.40;;;;;;;;;;6074869;23;20367;-77
2023/04/09 12:52:33;;;;;;;7.35;6.55;;;;;;;;;;6074540;23;20042;-77
2023/04/09 12:54:59;;;;;;;9.98;6.43;;;;;;;;;;6100764;23;20107;-76
2023/04/09 12:57:25;;;;;;;7.20;6.60;;;;;;;;;;6099566;23;20024;-77
2023/04/09 12:59:51;;;;;;;6.85;6.25;;;;;;;;;;6074806;23;20014;-76
2023/04/09 13:02:18;;;;;;;8.60;6.60;;;;;;;;;;6100829;23;20048;-76
2023/04/09 13:04:44;;;;;;;7.82;7.10;;;;;;;;;;6100430;23;20010;-76
2023/04/09 13:07:11;;;;;;;25.05;5.50;;;;;;;;;;6074152;23;20096;-76
2023/04/09 13:09:37;;;;;;;10.00;6.80;;;;;;;;;;6073185;23;20450;-76
2023/04/09 13:12:03;;;;;;;10.80;6.13;;;;;;;;;;6073726;23;20034;-76
2023/04/09 13:14:29;;;;;;;12.90;5.93;;;;;;;;;;6098615;23;20460;-76
2023/04/09 13:16:55;;;;;;;6.25;5.25;;;;;;;;;;6073674;23;20038;-76
2023/04/09 13:19:21;;;;;;;13.18;7.32;;;;;;;;;;6099384;23;20038;-77
2023/04/09 13:21:47;;;;;;;8.45;7.32;;;;;;;;;;6092951;23;20018;-78
2023/04/09 13:24:13;;;;;;;8.15;7.43;;;;;;;;;;6068336;23;20034;-77
2023/04/09 13:26:39;;;;;;;8.20;6.00;;;;;;;;;;6043849;23;20206;-76
2023/04/09 13:29:05;;;;;;;6.82;6.22;;;;;;;;;;6068621;23;20050;-76
2023/04/09 13:31:31;;;;;;;7.85;7.13;;;;;;;;;;6067847;23;20422;-77
2023/04/09 13:33:57;;;;;;;6.15;5.43;;;;;;;;;;6093875;23;20049;-76
2023/04/09 13:36:23;;;;;;;11.18;7.07;;;;;;;;;;6093747;23;20190;-78
2023/04/09 13:38:49;;;;;;;8.27;7.43;;;;;;;;;;6044649;23;20022;-78
2023/04/09 13:41:15;;;;;;;9.50;6.13;;;;;;;;;;6093739;23;20026;-78
2023/04/09 13:43:43;;;;;;;7.13;6.45;;;;;;;;;;6093338;23;20459;-78
2023/04/09 13:46:09;;;;;;;7.70;7.03;;;;;;;;;;6093660;23;20769;-77
2023/04/09 13:48:35;;;;;;;7.95;7.15;;;;;;;;;;6093359;23;20028;-77
2023/04/09 13:51:02;;;;;;;8.30;7.25;;;;;;;;;;6068084;23;20010;-78
2023/04/09 13:53:28;;;;;;;8.77;7.32;;;;;;;;;;6067875;23;20014;-77
2023/04/09 13:55:54;;;;;;;9.23;7.45;;;;;;;;;;6093731;23;20010;-77
2023/04/09 13:58:22;;;;;;;15.60;8.30;;;;;;;;;;6093427;23;20064;-78
2023/04/09 14:00:48;;;;;;;8.90;8.00;;;;;;;;;;6093240;23;20017;-78
2023/04/09 14:03:15;;;;;;;12.10;8.57;;;;;;;;;;6093634;23;20074;-77
2023/04/09 14:05:40;;;;;;;14.48;8.35;;;;;;;;;;6093365;23;20034;-78
2023/04/09 14:08:06;;;;;;;12.40;8.13;;;;;;;;;;6093437;23;20022;-77
2023/04/09 14:10:32;;;;;;;8.55;7.50;;;;;;;;;;6020696;23;20423;-77
2023/04/09 14:12:58;;;;;;;15.23;9.23;;;;;;;;;;6068176;23;20456;-77
2023/04/09 14:15:24;;;;;;;12.45;8.20;;;;;;;;;;6093999;23;20021;-76
2023/04/09 14:17:50;;;;;;;10.80;8.38;;;;;;;;;;6068678;23;20534;-76
2023/04/09 14:20:18;;;;;;;8.32;7.60;;;;;;;;;;6094460;23;20011;-77
2023/04/09 14:22:47;;;;;;;11.95;7.57;;;;;;;;;;6093122;23;20046;-77
2023/04/09 14:25:14;;;;;;;14.23;7.90;;;;;;;;;;6068166;23;20018;-76
2023/04/09 14:27:40;;;;;;;11.38;7.45;;;;;;;;;;6093761;23;20020;-76
2023/04/09 14:30:07;;;;;;;7.60;6.90;;;;;;;;;;6068951;23;20022;-77
2023/04/09 14:32:34;;;;;;;6.88;6.28;;;;;;;;;;6094215;23;20014;-77
2023/04/09 14:35:01;;;;;;;7.25;6.50;;;;;;;;;;6069202;23;20021;-76
2023/04/09 14:37:27;;;;;;;6.22;5.72;;;;;;;;;;6093697;23;20017;-76
2023/04/09 14:39:53;;;;;;;6.35;5.60;;;;;;;;;;6093594;23;20081;-77
2023/04/09 14:42:18;;;;;;;7.28;6.00;;;;;;;;;;6068815;23;20057;-75
2023/04/09 14:44:44;;;;;;;6.10;5.20;;;;;;;;;;6068205;23;20021;-77
2023/04/09 14:47:10;;;;;;;9.43;7.75;;;;;;;;;;6069047;23;20089;-77